Time;durP1;ratioP1;P1;durP2;ratioP2;P2;SDS_P1;SDS_P2;PMS_P1;PMS_P2;Temp;Humidity;BMP_temperature;BMP_pressure;BME280_temperature;BME280_humidity;BME280_pressure;Samples;Min_cycle;Max_cycle;Signal;HPM_P1;HPM_P2
2022/08/19 00:01:55;;;;;;;10.32;7.50;;;;;;;29.20;40.12;99356.72;4377363;32;33912;-81
2022/08/19 00:04:28;;;;;;;10.95;7.90;;;;;;;28.99;40.64;99370.84;4377061;32;33897;-81
2022/08/19 00:06:56;;;;;;;10.75;7.78;;;;;;;28.99;40.61;99360.19;4376405;32;34592;-82
2022/08/19 00:09:24;;;;;;;11.68;7.18;;;;;;;28.92;40.61;99366.72;4378800;32;33590;-80
2022/08/19 00:11:53;;;;;;;11.25;7.55;;;;;;;28.81;41.04;99365.28;4375597;32;34040;-84
2022/08/19 00:14:22;;;;;;;10.45;7.78;;;;;;;28.94;40.74;99362.19;4363942;32;33619;-82
2022/08/19 00:16:53;;;;;;;11.20;8.32;;;;;;;28.69;41.39;99365.75;4364780;32;34313;-81
2022/08/19 00:19:23;;;;;;;11.68;8.75;;;;;;;28.70;41.26;99367.47;4377254;32;34436;-86
2022/08/19 00:21:51;;;;;;;12.00;7.60;;;;;;;28.87;40.90;99364.19;4364194;32;33823;-85
2022/08/19 00:24:19;;;;;;;14.30;7.82;;;;;;;28.97;41.08;99364.72;4377283;32;33920;-81
2022/08/19 00:26:47;;;;;;;30.33;9.40;;;;;;;28.52;41.83;99357.50;4364195;32;34051;-84
2022/08/19 00:29:17;;;;;;;10.32;8.20;;;;;;;28.73;41.41;99356.72;4363517;32;31918;-82
2022/08/19 00:31:45;;;;;;;16.00;8.02;;;;;;;28.62;42.01;99364.22;4363284;32;33943;-85
2022/08/19 00:34:13;;;;;;;12.68;8.27;;;;;;;28.41;42.27;99353.41;4377163;32;33767;-83
2022/08/19 00:36:42;;;;;;;11.63;8.25;;;;;;;28.40;42.02;99364.09;4374404;32;34414;-80
2022/08/19 00:39:10;;;;;;;11.55;8.10;;;;;;;28.53;41.98;99365.44;4356731;32;33717;-83
2022/08/19 00:41:39;;;;;;;14.65;7.85;;;;;;;28.50;42.27;99364.66;4364011;32;33956;-83
2022/08/19 00:44:21;;;;;;;10.27;7.72;;;;;;;28.84;41.49;99364.31;4377324;32;34722;-81
2022/08/19 00:46:55;;;;;;;12.35;8.13;;;;;;;28.47;42.12;99360.28;4376534;32;34141;-83
2022/08/19 00:49:32;;;;;;;10.15;7.70;;;;;;;28.55;41.89;99346.72;4358265;32;33662;-83
2022/08/19 00:52:02;;;;;;;13.65;8.27;;;;;;;28.70;41.62;99354.16;4363554;32;33981;-83
2022/08/19 00:54:31;;;;;;;14.50;8.60;;;;;;;28.58;42.11;99347.47;4374384;32;33758;-81
2022/08/19 00:56:59;;;;;;;16.67;7.70;;;;;;;28.90;41.45;99353.44;4363505;32;34679;-86
2022/08/19 00:59:27;;;;;;;13.10;7.95;;;;;;;28.56;41.94;99356.47;4363343;32;34092;-84
2022/08/19 01:02:16;;;;;;;14.10;7.35;;;;;;;28.49;41.67;99352.22;4365737;32;33645;-83
2022/08/19 01:04:43;;;;;;;10.77;8.15;;;;;;;28.43;41.73;99354.22;4376895;32;33937;-82
2022/08/19 01:07:11;;;;;;;11.55;7.75;;;;;;;28.38;41.74;99350.84;4381851;32;33864;-86
2022/08/19 01:09:41;;;;;;;13.20;8.65;;;;;;;28.37;41.83;99348.22;4377598;32;33429;-81
2022/08/19 01:12:09;;;;;;;9.80;8.13;;;;;;;28.30;42.07;99349.34;4376597;32;34523;-82
2022/08/19 01:14:39;;;;;;;11.88;8.50;;;;;;;28.24;42.20;99348.66;4363954;32;34468;-83
2022/08/19 01:17:10;;;;;;;10.95;7.75;;;;;;;28.00;42.97;99345.03;4363733;32;33851;-81
2022/08/19 01:19:41;;;;;;;10.25;8.10;;;;;;;28.35;41.99;99342.94;4363387;32;32143;-82
2022/08/19 01:22:10;;;;;;;13.10;7.95;;;;;;;28.37;42.18;99343.75;4376909;32;33634;-82
2022/08/19 01:24:41;;;;;;;13.88;8.25;;;;;;;28.08;42.65;99346.56;4376622;32;33988;-84
2022/08/19 01:27:16;;;;;;;10.30;8.13;;;;;;;28.32;42.19;99344.84;4376813;32;33979;-86
2022/08/19 01:29:44;;;;;;;11.35;8.30;;;;;;;28.33;42.30;99343.94;4362428;32;34171;-83
2022/08/19 01:32:14;;;;;;;10.38;7.82;;;;;;;28.48;42.02;99334.53;4362068;32;34765;-82
2022/08/19 01:35:05;;;;;;;11.57;7.93;;;;;;;28.57;41.56;99334.22;4365674;32;33700;-83
2022/08/19 01:37:49;;;;;;;13.68;8.27;;;;;;;28.03;42.83;99336.09;4362806;32;34492;-79
2022/08/19 01:40:20;;;;;;;11.40;7.35;;;;;;;28.37;42.12;99330.44;4376199;32;33684;-82
2022/08/19 01:42:48;;;;;;;10.30;8.13;;;;;;;28.64;41.88;99333.06;4364387;32;34440;-85
2022/08/19 01:45:17;;;;;;;9.63;7.57;;;;;;;28.05;42.59;99315.63;4379349;32;33714;-83
2022/08/19 01:47:45;;;;;;;10.40;7.80;;;;;;;28.40;41.94;99311.69;4378384;32;34750;-84
2022/08/19 01:50:30;;;;;;;14.63;8.07;;;;;;;27.96;42.93;99311.47;4369284;32;32626;-82
2022/08/19 01:52:59;;;;;;;13.18;7.93;;;;;;;28.20;42.61;99308.84;4378671;32;34565;-85
2022/08/19 01:55:35;;;;;;;11.52;7.78;;;;;;;27.88;43.10;99301.97;4379061;32;34870;-85
2022/08/19 01:58:15;;;;;;;12.68;8.00;;;;;;;28.08;43.01;99293.31;4365535;32;34713;-84
2022/08/19 02:00:43;;;;;;;14.80;7.87;;;;;;;27.81;43.39;99285.34;4364247;32;33527;-82
2022/08/19 02:03:11;;;;;;;10.85;7.45;;;;;;;27.64;43.77;99288.56;4365079;32;33678;-83
2022/08/19 02:05:40;;;;;;;12.52;7.72;;;;;;;27.90;43.32;99285.06;4364232;32;33646;-81
2022/08/19 02:08:08;;;;;;;12.10;8.75;;;;;;;27.95;43.46;99288.44;4380183;32;35438;-81
2022/08/19 02:10:42;;;;;;;11.12;8.32;;;;;;;28.10;43.09;99291.47;4376271;32;33712;-80
2022/08/19 02:13:10;;;;;;;13.10;7.73;;;;;;;27.80;43.71;99292.47;4378171;32;34640;-82
2022/08/19 02:15:38;;;;;;;11.40;8.20;;;;;;;27.93;43.51;99295.62;4378389;32;33660;-84
2022/08/19 02:18:07;;;;;;;12.00;8.52;;;;;;;27.90;43.55;99300.16;4378540;32;34284;-80
2022/08/19 02:20:35;;;;;;;11.88;8.35;;;;;;;28.02;43.12;99299.72;4364126;32;33578;-82
2022/08/19 02:23:03;;;;;;;13.23;8.55;;;;;;;27.72;43.90;99290.97;4364750;32;34011;-80
2022/08/19 02:25:30;;;;;;;12.48;8.27;;;;;;;27.79;43.67;99276.53;4375748;32;34552;-79
2022/08/19 02:27:58;;;;;;;12.05;8.35;;;;;;;28.16;43.21;99275.28;4364181;32;34258;-84
2022/08/19 02:30:26;;;;;;;11.65;8.15;;;;;;;28.18;43.21;99274.31;4377418;32;33586;-86
2022/08/19 02:32:53;;;;;;;11.85;8.52;;;;;;;27.80;43.76;99268.50;4377513;32;33777;-86
2022/08/19 02:35:21;;;;;;;13.62;8.30;;;;;;;27.83;43.52;99288.81;4378100;32;34733;-85
2022/08/19 02:40:35;;;;;;;12.00;8.02;;;;;;;27.63;44.32;99287.69;4366822;32;34114;-85
2022/08/19 02:43:07;;;;;;;11.35;8.52;;;;;;;27.53;44.18;99280.94;4377832;32;33159;-82
2022/08/19 02:45:36;;;;;;;11.15;8.35;;;;;;;27.41;44.94;99286.66;4377598;32;33485;-84
2022/08/19 02:48:08;;;;;;;11.27;8.13;;;;;;;27.55;44.27;99294.22;4378020;32;34054;-81
2022/08/19 02:50:55;;;;;;;11.00;8.55;;;;;;;27.80;43.64;99299.56;4377720;32;33082;-82
2022/08/19 02:53:25;;;;;;;11.73;7.90;;;;;;;27.49;44.75;99299.69;4378184;32;33716;-80
2022/08/19 02:55:53;;;;;;;11.48;7.75;;;;;;;27.83;44.09;99304.78;4377923;32;34044;-81
2022/08/19 02:58:21;;;;;;;11.07;8.40;;;;;;;27.69;44.24;99305.25;4371426;32;33159;-82
2022/08/19 03:00:52;;;;;;;10.60;8.00;;;;;;;27.95;43.32;99308.84;4363977;32;32907;-84
2022/08/19 03:03:21;;;;;;;11.18;8.20;;;;;;;28.07;43.02;99307.53;4377845;32;33794;-82
2022/08/19 03:05:48;;;;;;;11.93;8.40;;;;;;;27.85;43.69;99297.59;4378541;32;34034;-82
2022/08/19 03:08:25;;;;;;;14.48;8.93;;;;;;;27.84;43.90;99311.84;4364976;32;34845;-82
2022/08/19 03:10:53;;;;;;;11.18;8.32;;;;;;;27.72;43.81;99306.94;4361926;32;33774;-81
2022/08/19 03:13:21;;;;;;;12.77;7.97;;;;;;;27.23;45.49;99304.03;4375851;32;34249;-81
2022/08/19 03:15:49;;;;;;;11.35;8.55;;;;;;;27.50;44.85;99328.91;4364135;32;33935;-81
2022/08/19 03:18:16;;;;;;;12.95;8.38;;;;;;;27.11;45.46;99323.03;4363893;32;34221;-80
2022/08/19 03:20:49;;;;;;;10.07;7.68;;;;;;;27.23;45.32;99326.16;4381849;32;34403;-84
2022/08/19 03:23:17;;;;;;;13.55;8.45;;;;;;;27.19;45.58;99328.97;4364137;32;33942;-80
2022/08/19 03:25:47;;;;;;;12.13;8.18;;;;;;;27.38;45.49;99321.34;4377582;32;33874;-82
2022/08/19 03:28:35;;;;;;;11.65;8.38;;;;;;;27.12;46.14;99328.31;4374578;32;33904;-84
2022/08/19 03:31:06;;;;;;;11.95;8.25;;;;;;;27.04;46.03;99330.31;4364441;32;33237;-84
2022/08/19 03:33:53;;;;;;;13.57;8.60;;;;;;;26.75;46.46;99334.69;4376667;32;33935;-86
2022/08/19 03:36:24;;;;;;;11.18;8.48;;;;;;;27.04;45.91;99335.63;4376471;32;33851;-81
2022/08/19 03:38:55;;;;;;;11.30;8.52;;;;;;;27.04;46.18;99325.91;4363283;32;34729;-85
2022/08/19 03:41:28;;;;;;;14.50;8.65;;;;;;;27.01;46.01;99333.09;4377942;32;33562;-83
2022/08/19 03:44:15;;;;;;;12.73;7.90;;;;;;;27.20;45.51;99333.41;4364757;32;33936;-79
2022/08/19 03:46:47;;;;;;;12.73;8.50;;;;;;;26.86;46.38;99337.06;4377989;32;33987;-81
2022/08/19 03:49:15;;;;;;;11.75;8.35;;;;;;;26.70;47.18;99352.56;4363800;32;34085;-84
2022/08/19 03:51:46;;;;;;;10.23;8.15;;;;;;;27.00;46.26;99349.94;4363968;32;33264;-82
2022/08/19 03:54:16;;;;;;;12.55;8.82;;;;;;;27.11;45.86;99350.50;4375969;32;33793;-83
2022/08/19 03:56:44;;;;;;;10.40;8.63;;;;;;;27.40;45.03;99338.13;4377672;32;33889;-82
2022/08/19 03:59:19;;;;;;;12.77;8.55;;;;;;;27.06;45.81;99341.78;4371769;32;34211;-81
2022/08/19 04:01:47;;;;;;;12.80;8.98;;;;;;;27.09;45.80;99343.50;4376181;32;34272;-80
2022/08/19 04:04:14;;;;;;;11.12;8.35;;;;;;;26.54;47.14;99345.91;4376635;32;33707;-80
2022/08/19 04:06:43;;;;;;;19.15;9.02;;;;;;;26.80;46.49;99358.50;4376352;32;34802;-82
2022/08/19 04:09:11;;;;;;;15.27;8.35;;;;;;;26.99;46.38;99358.84;4377299;32;33618;-83
2022/08/19 04:11:42;;;;;;;13.45;8.85;;;;;;;27.29;45.41;99361.50;4374888;32;34299;-82
2022/08/19 04:14:13;;;;;;;13.20;8.35;;;;;;;27.36;45.43;99363.06;4374537;32;34653;-81
2022/08/19 04:16:42;;;;;;;11.30;8.10;;;;;;;27.39;45.36;99366.50;4376848;32;33127;-81
2022/08/19 04:19:10;;;;;;;13.85;8.38;;;;;;;27.41;45.95;99363.78;4376742;32;33705;-81
2022/08/19 04:21:37;;;;;;;10.93;8.07;;;;;;;26.97;46.75;99366.00;4376526;32;33706;-81
2022/08/19 04:24:05;;;;;;;12.23;8.60;;;;;;;27.30;46.17;99366.78;4377051;32;34287;-81
2022/08/19 04:26:35;;;;;;;11.30;7.97;;;;;;;27.36;45.51;99357.75;4376868;32;34056;-82
2022/08/19 04:29:09;;;;;;;10.38;8.25;;;;;;;27.28;45.54;99365.09;4377105;32;34112;-80
2022/08/19 04:31:40;;;;;;;11.65;7.80;;;;;;;27.27;46.03;99374.84;4376504;32;33712;-82
2022/08/19 04:34:13;;;;;;;11.20;8.60;;;;;;;27.23;45.98;99363.41;4363234;32;33977;-81
2022/08/19 04:36:44;;;;;;;14.27;8.82;;;;;;;27.52;45.11;99363.47;4376673;32;34147;-84
2022/08/19 04:39:16;;;;;;;15.27;8.57;;;;;;;27.24;45.65;99370.50;4363483;32;33391;-81
2022/08/19 04:44:32;;;;;;;11.32;8.32;;;;;;;27.74;44.63;99379.59;4370121;32;33859;-81
2022/08/19 04:47:04;;;;;;;11.57;8.43;;;;;;;27.70;44.81;99367.31;4376554;32;32794;-82
2022/08/19 04:49:37;;;;;;;13.82;8.55;;;;;;;27.79;44.63;99367.03;4379592;32;33701;-84
2022/08/19 04:52:05;;;;;;;13.60;8.73;;;;;;;27.66;44.96;99369.19;4377349;32;34414;-82
2022/08/19 04:54:32;;;;;;;14.95;8.52;;;;;;;27.69;44.96;99374.44;4376757;32;33548;-82
2022/08/19 04:57:09;;;;;;;11.80;8.75;;;;;;;27.57;45.10;99375.69;4376974;32;34648;-81
2022/08/19 04:59:38;;;;;;;12.37;8.32;;;;;;;27.29;46.02;99382.78;4387337;32;34028;-81
2022/08/19 05:02:08;;;;;;;13.15;8.23;;;;;;;27.47;45.79;99387.56;4376507;32;33561;-82
2022/08/19 05:04:38;;;;;;;13.32;8.90;;;;;;;27.20;46.57;99390.09;4363271;32;33494;-82
2022/08/19 05:07:07;;;;;;;12.13;8.43;;;;;;;27.44;46.03;99382.31;4376593;32;33425;-82
2022/08/19 05:09:35;;;;;;;13.45;8.15;;;;;;;26.97;47.11;99384.59;4363297;32;32753;-84
2022/08/19 05:12:24;;;;;;;10.10;7.93;;;;;;;27.41;46.17;99382.41;4375512;32;33552;-81
2022/08/19 05:14:57;;;;;;;13.48;8.75;;;;;;;27.18;46.67;99381.31;4369565;32;32453;-81
2022/08/19 05:17:26;;;;;;;12.55;8.77;;;;;;;27.62;45.98;99378.19;4376515;32;33841;-80
2022/08/19 05:22:43;;;;;;;11.27;8.02;;;;;;;27.65;45.52;99376.31;4378325;32;33631;-81
2022/08/19 05:25:14;;;;;;;15.07;8.30;;;;;;;27.53;45.58;99376.72;4379329;32;33961;-81
2022/08/19 05:27:42;;;;;;;11.65;7.82;;;;;;;27.62;45.37;99376.44;4376893;32;33665;-81
2022/08/19 05:30:11;;;;;;;11.50;7.62;;;;;;;27.76;44.91;99377.78;4378419;32;34067;-82
2022/08/19 05:32:39;;;;;;;13.95;8.10;;;;;;;27.78;44.93;99381.25;4364808;32;34921;-83
2022/08/19 05:35:08;;;;;;;12.85;7.53;;;;;;;27.84;44.70;99386.38;4364948;32;33730;-83
2022/08/19 05:37:35;;;;;;;11.98;7.62;;;;;;;27.80;44.73;99385.59;4378819;32;34119;-80
2022/08/19 05:40:03;;;;;;;13.48;8.10;;;;;;;28.08;43.91;99389.19;4378320;32;33922;-80
2022/08/19 05:42:31;;;;;;;10.52;8.13;;;;;;;28.51;43.15;99391.28;4378846;32;33526;-81
2022/08/19 05:44:59;;;;;;;11.30;7.57;;;;;;;28.30;43.57;99390.19;4362169;32;32620;-82
2022/08/19 05:47:27;;;;;;;11.35;7.82;;;;;;;28.44;43.34;99387.03;4378462;32;33959;-81
2022/08/19 05:49:54;;;;;;;13.57;7.53;;;;;;;28.22;43.68;99387.78;4378365;32;34103;-81
2022/08/19 05:52:22;;;;;;;10.35;7.20;;;;;;;28.55;43.00;99384.00;4366002;32;33563;-80
2022/08/19 05:54:55;;;;;;;11.05;7.57;;;;;;;28.15;43.27;99380.06;4364083;32;32408;-83
2022/08/19 05:57:23;;;;;;;12.65;7.68;;;;;;;28.51;42.67;99374.38;4375483;32;33709;-80
2022/08/19 05:59:52;;;;;;;10.70;7.65;;;;;;;28.77;42.52;99379.66;4363365;32;33998;-83
2022/08/19 06:02:26;;;;;;;;;;;;;;;28.23;43.45;99380.66;4365437;32;34251;-80
2022/08/19 06:04:53;;;;;;;13.23;6.97;;;;;;;28.33;43.16;99383.87;4378542;32;33974;-82
2022/08/19 06:07:21;;;;;;;13.38;6.95;;;;;;;28.27;42.98;99379.62;4378784;32;34580;-79
2022/08/19 06:09:48;;;;;;;10.95;7.25;;;;;;;28.39;42.87;99373.00;4377056;32;34709;-80
2022/08/19 06:12:33;;;;;;;9.38;7.00;;;;;;;28.53;42.60;99369.88;4365825;32;31920;-83
2022/08/19 06:15:06;;;;;;;11.75;6.78;;;;;;;29.00;41.55;99368.13;4353643;32;32648;-81
2022/08/19 06:17:34;;;;;;;10.90;7.18;;;;;;;28.87;41.76;99374.00;4363268;32;33029;-81
2022/08/19 06:20:05;;;;;;;15.20;7.28;;;;;;;28.68;42.00;99377.31;4378405;32;33686;-82
2022/08/19 06:22:40;;;;;;;10.25;6.85;;;;;;;28.66;41.98;99371.19;4372716;32;32659;-82
2022/08/19 06:25:09;;;;;;;11.10;6.90;;;;;;;28.54;42.21;99363.63;4377035;32;33555;-81
2022/08/19 06:27:37;;;;;;;9.05;7.20;;;;;;;28.99;41.37;99355.75;4377444;32;34655;-80
2022/08/19 06:30:24;;;;;;;13.23;6.82;;;;;;;28.71;42.05;99361.22;4364004;32;33993;-79
2022/08/19 06:32:52;;;;;;;9.65;6.22;;;;;;;28.72;42.14;99365.62;4377817;32;33771;-81
2022/08/19 06:35:19;;;;;;;11.23;6.80;;;;;;;28.75;42.04;99354.84;4377647;32;34578;-81
2022/08/19 06:37:47;;;;;;;10.35;7.00;;;;;;;28.81;42.01;99354.63;4377271;32;34408;-84
2022/08/19 06:40:15;;;;;;;9.93;6.97;;;;;;;28.90;41.89;99342.75;4374258;32;34175;-84
2022/08/19 06:42:43;;;;;;;10.07;6.90;;;;;;;28.98;41.59;99342.47;4354048;32;32108;-84
2022/08/19 06:45:22;;;;;;;10.13;6.95;;;;;;;29.19;41.16;99341.66;4364573;32;33275;-84
2022/08/19 06:47:54;;;;;;;9.82;7.07;;;;;;;29.18;41.22;99347.91;4378397;32;33173;-81
2022/08/19 06:50:24;;;;;;;11.95;6.65;;;;;;;29.17;41.21;99351.53;4378382;32;34024;-82
2022/08/19 06:52:52;;;;;;;10.50;6.82;;;;;;;29.37;40.70;99358.75;4383510;32;33054;-84
2022/08/19 06:55:20;;;;;;;12.40;7.05;;;;;;;29.94;39.93;99369.84;4353189;32;33938;-83
2022/08/19 06:57:47;;;;;;;14.43;6.70;;;;;;;29.63;40.40;99370.16;4363847;32;33665;-81
2022/08/19 07:00:15;;;;;;;12.98;6.95;;;;;;;29.63;40.36;99379.97;4377031;32;34686;-80
2022/08/19 07:02:43;;;;;;;10.43;6.62;;;;;;;29.71;40.10;99375.19;4378045;32;33529;-82
2022/08/19 07:05:20;;;;;;;10.73;6.03;;;;;;;29.84;39.91;99384.47;4378004;32;33978;-82
2022/08/19 07:07:48;;;;;;;12.27;7.35;;;;;;;30.27;39.07;99384.47;4377923;32;33818;-82
2022/08/19 07:10:18;;;;;;;12.43;6.72;;;;;;;30.31;38.94;99389.66;4378302;32;34004;-82
2022/08/19 07:12:47;;;;;;;10.82;6.57;;;;;;;30.68;38.33;99396.06;4378270;32;33243;-85
2022/08/19 07:15:15;;;;;;;9.85;6.30;;;;;;;30.54;38.53;99396.69;4378279;32;33800;-83
2022/08/19 07:17:45;;;;;;;8.98;6.68;;;;;;;30.69;37.79;99394.25;4377883;32;33947;-84
2022/08/19 07:20:16;;;;;;;9.77;7.15;;;;;;;30.77;37.78;99403.69;4378242;32;33769;-82
2022/08/19 07:22:46;;;;;;;13.20;6.70;;;;;;;30.85;37.53;99399.78;4377762;32;33361;-81
2022/08/19 07:25:13;;;;;;;13.15;7.15;;;;;;;31.40;36.78;99407.09;4377919;32;34025;-80
2022/08/19 07:27:41;;;;;;;12.50;6.95;;;;;;;31.69;36.55;99403.06;4375169;32;34618;-81
2022/08/19 07:30:13;;;;;;;9.68;6.47;;;;;;;32.17;35.78;99393.56;4378177;32;34426;-80
2022/08/19 07:32:40;;;;;;;12.27;6.87;;;;;;;32.76;34.57;99395.91;4377763;32;33568;-84
2022/08/19 07:35:09;;;;;;;10.90;6.93;;;;;;;33.07;33.93;99395.12;4377777;32;34706;-82
2022/08/19 07:37:37;;;;;;;8.55;6.65;;;;;;;34.00;32.13;99390.87;4377035;32;33829;-80
2022/08/19 07:40:06;;;;;;;11.30;6.78;;;;;;;34.84;30.52;99393.00;4375832;32;34341;-82
2022/08/19 07:42:34;;;;;;;10.23;6.32;;;;;;;35.94;29.22;99384.22;4377049;32;34024;-81
2022/08/19 07:45:03;;;;;;;12.35;6.10;;;;;;;36.51;28.27;99383.06;4378055;32;35068;-82
2022/08/19 07:47:30;;;;;;;10.45;5.97;;;;;;;36.80;27.16;99383.75;4378333;32;33621;-83
2022/08/19 07:50:19;;;;;;;10.23;5.60;;;;;;;37.31;26.83;99383.69;4378006;32;34390;-83
2022/08/19 07:52:49;;;;;;;8.82;5.87;;;;;;;37.47;26.19;99387.97;4377668;32;35662;-83
2022/08/19 07:55:24;;;;;;;11.40;6.10;;;;;;;38.20;24.89;99386.19;4372596;32;32048;-82
2022/08/19 07:58:12;;;;;;;11.73;5.97;;;;;;;38.38;24.59;99387.47;4377133;32;33380;-82
2022/08/19 08:00:41;;;;;;;11.80;5.87;;;;;;;38.80;23.95;99395.09;4375788;32;33997;-84
2022/08/19 08:03:10;;;;;;;8.90;5.68;;;;;;;38.76;24.19;99391.75;4378148;32;34372;-84
2022/08/19 08:11:18;;;;;;;13.75;5.70;;;;;;;38.82;23.44;99388.56;4367153;32;33807;-82
2022/08/19 08:13:49;;;;;;;11.98;5.82;;;;;;;38.89;23.89;99389.78;4378183;32;33823;-83
2022/08/19 08:16:30;;;;;;;8.82;5.97;;;;;;;38.06;24.45;99385.38;4366047;32;32705;-82
2022/08/19 08:18:59;;;;;;;12.88;6.05;;;;;;;38.31;24.22;99388.94;4377749;32;34501;-82
2022/08/19 08:21:27;;;;;;;10.07;5.75;;;;;;;38.53;23.76;99389.00;4376626;32;33836;-84
2022/08/19 08:23:55;;;;;;;7.03;5.32;;;;;;;38.37;23.77;99383.03;4377572;32;33154;-82
2022/08/19 08:26:23;;;;;;;7.72;5.62;;;;;;;38.38;23.69;99383.91;4377697;32;34085;-82
2022/08/19 08:28:52;;;;;;;13.98;5.68;;;;;;;38.05;23.96;99389.03;4377227;32;33498;-82
2022/08/19 08:31:19;;;;;;;9.48;5.22;;;;;;;38.34;23.28;99378.75;4350742;32;33865;-83
2022/08/19 08:33:47;;;;;;;8.05;4.93;;;;;;;38.64;22.51;99379.19;4377463;32;33316;-83
2022/08/19 08:36:16;;;;;;;8.65;5.57;;;;;;;38.25;23.29;99373.16;4377348;32;32607;-82
2022/08/19 08:38:47;;;;;;;13.70;5.90;;;;;;;38.10;23.94;99365.25;4377215;32;34378;-82
2022/08/19 08:41:52;;;;;;;8.82;5.55;;;;;;;38.30;23.54;99360.16;4377396;32;34224;-83
2022/08/19 08:44:27;;;;;;;6.82;5.07;;;;;;;37.99;22.98;99351.66;4377372;32;33405;-82
2022/08/19 08:46:58;;;;;;;9.77;4.72;;;;;;;37.29;23.74;99347.84;4358058;32;34025;-88
2022/08/19 08:49:51;;;;;;;8.00;5.18;;;;;;;37.74;23.19;99353.50;4373875;32;34347;-83
2022/08/19 08:52:25;;;;;;;10.82;5.53;;;;;;;37.49;23.80;99372.50;4361377;32;34233;-82
2022/08/19 08:55:00;;;;;;;9.40;5.32;;;;;;;37.27;23.46;99371.41;4366995;32;33753;-82
2022/08/19 08:57:41;;;;;;;8.07;5.35;;;;;;;37.47;23.50;99374.47;4363840;32;33947;-83
2022/08/19 09:00:16;;;;;;;8.30;5.37;;;;;;;37.23;23.91;99358.25;4362950;32;33573;-83
2022/08/19 09:02:44;;;;;;;11.65;5.25;;;;;;;37.50;23.76;99360.75;4363544;32;34041;-83
2022/08/19 09:05:20;;;;;;;;;;;;;;;37.12;23.94;99350.88;4377106;32;34065;-82
2022/08/19 09:08:02;;;;;;;10.13;5.18;;;;;;;36.69;24.68;99359.38;4364208;32;33202;-80
2022/08/19 09:10:40;;;;;;;9.30;5.57;;;;;;;36.87;24.66;99360.75;4362704;32;34045;-80
2022/08/19 09:13:37;;;;;;;10.05;5.28;;;;;;;36.89;24.72;99361.50;4363119;32;34939;-81
2022/08/19 09:16:13;;;;;;;9.45;5.57;;;;;;;36.94;24.52;99351.22;4363873;32;33098;-82
2022/08/19 09:18:53;;;;;;;7.20;4.80;;;;;;;37.10;24.41;99352.81;4382999;32;34391;-81
2022/08/19 09:21:24;;;;;;;7.40;5.37;;;;;;;37.35;24.32;99341.97;4369849;32;33921;-82
2022/08/19 09:24:04;;;;;;;17.40;6.20;;;;;;;37.64;23.92;99333.56;4376798;32;34215;-83
2022/08/19 09:26:33;;;;;;;6.47;5.10;;;;;;;37.29;24.07;99336.19;4372999;32;33680;-81
2022/08/19 09:29:20;;;;;;;8.25;5.32;;;;;;;37.53;23.97;99328.97;4365114;32;33774;-83
2022/08/19 09:31:49;;;;;;;8.45;5.62;;;;;;;37.43;24.34;99321.66;4377242;32;33840;-83
2022/08/19 09:34:19;;;;;;;8.60;5.00;;;;;;;37.37;24.10;99329.22;4376380;32;34798;-83
2022/08/19 09:36:52;;;;;;;9.65;5.62;;;;;;;37.75;23.23;99328.22;4375987;32;34135;-81
2022/08/19 09:39:21;;;;;;;9.98;5.25;;;;;;;37.97;23.14;99330.13;4356982;32;34545;-80
2022/08/19 09:41:52;;;;;;;7.40;5.20;;;;;;;38.12;22.96;99336.25;4377133;32;33745;-81
2022/08/19 09:44:20;;;;;;;11.30;5.50;;;;;;;38.00;23.02;99323.66;4377362;32;34326;-82
2022/08/19 09:46:48;;;;;;;9.07;5.72;;;;;;;37.63;23.54;99323.75;4362974;32;32070;-84
2022/08/19 09:49:18;;;;;;;7.47;5.32;;;;;;;37.27;23.77;99322.78;4363596;32;33893;-81
2022/08/19 09:51:50;;;;;;;7.80;5.50;;;;;;;37.75;23.36;99311.16;4376687;32;33934;-82
2022/08/19 09:54:18;;;;;;;19.77;6.30;;;;;;;37.54;23.72;99313.59;4372821;32;34144;-80
2022/08/19 09:56:55;;;;;;;10.80;5.80;;;;;;;37.86;23.39;99304.91;4376124;32;33797;-81
2022/08/19 09:59:23;;;;;;;12.70;5.40;;;;;;;37.92;23.71;99315.25;4361798;32;34595;-81
2022/08/19 10:01:51;;;;;;;17.67;6.07;;;;;;;37.67;23.52;99314.44;4374904;32;34755;-81
2022/08/19 10:04:20;;;;;;;9.35;5.50;;;;;;;37.95;23.54;99312.31;4368127;32;33649;-80
2022/08/19 10:06:51;;;;;;;7.93;5.37;;;;;;;38.49;22.66;99317.13;4373083;32;33653;-80
2022/08/19 10:09:21;;;;;;;8.02;5.18;;;;;;;38.64;22.76;99306.13;4377620;32;34612;-81
2022/08/19 10:12:01;;;;;;;8.05;5.50;;;;;;;38.49;22.97;99300.91;4377826;32;33950;-84
2022/08/19 10:14:30;;;;;;;10.43;5.45;;;;;;;38.57;22.58;99307.59;4375458;32;33954;-84
2022/08/19 10:17:00;;;;;;;8.65;5.12;;;;;;;38.60;22.15;99301.94;4377744;32;33350;-84
2022/08/19 10:19:47;;;;;;;7.37;5.18;;;;;;;38.76;22.16;99301.56;4374574;32;34015;-83
2022/08/19 10:22:22;;;;;;;10.00;5.50;;;;;;;38.92;22.27;99307.44;4377009;32;33714;-84
2022/08/19 10:24:53;;;;;;;6.12;5.10;;;;;;;38.76;22.12;99290.75;4377845;32;34856;-82
2022/08/19 10:27:21;;;;;;;7.70;5.05;;;;;;;38.73;22.29;99290.00;4377199;32;33607;-83
2022/08/19 10:29:48;;;;;;;7.50;5.15;;;;;;;39.12;21.62;99289.63;4378230;32;33636;-82
2022/08/19 10:32:16;;;;;;;9.13;5.35;;;;;;;39.23;22.12;99300.41;4378146;32;34517;-82
2022/08/19 10:34:44;;;;;;;9.25;5.15;;;;;;;39.68;21.48;99294.03;4378640;32;34557;-85
2022/08/19 10:37:17;;;;;;;12.30;5.20;;;;;;;39.25;21.09;99295.75;4371391;32;33473;-83
2022/08/19 10:39:55;;;;;;;6.95;4.90;;;;;;;38.96;21.86;99297.22;4379227;32;33500;-83
2022/08/19 10:42:23;;;;;;;9.45;5.68;;;;;;;39.59;21.03;99290.22;4379758;32;34053;-83
2022/08/19 10:44:50;;;;;;;7.80;4.80;;;;;;;39.88;20.90;99292.34;4373720;32;34052;-83
2022/08/19 10:47:18;;;;;;;11.80;4.93;;;;;;;39.94;20.27;99294.53;4377976;32;33649;-82
2022/08/19 10:52:45;;;;;;;8.20;5.15;;;;;;;40.39;20.10;99288.00;4374981;32;34644;-82
2022/08/19 10:58:22;;;;;;;11.10;5.57;;;;;;;40.18;19.86;99285.25;4379117;32;34121;-80
2022/08/19 11:00:57;;;;;;;12.05;5.57;;;;;;;40.41;19.64;99296.84;4378126;32;33942;-80
2022/08/19 11:03:27;;;;;;;8.68;5.10;;;;;;;40.81;19.20;99294.22;4364876;32;32650;-81
2022/08/19 11:06:04;;;;;;;8.35;5.28;;;;;;;40.99;19.14;99285.41;4378754;32;34664;-82
2022/08/19 11:08:34;;;;;;;8.25;5.80;;;;;;;41.12;19.07;99291.44;4361306;32;32279;-82
2022/08/19 11:11:03;;;;;;;7.82;5.80;;;;;;;40.57;19.55;99293.66;4364754;32;33533;-83
2022/08/19 11:13:33;;;;;;;10.63;7.12;;;;;;;41.21;18.74;99290.63;4378748;32;34049;-81
2022/08/19 11:16:07;;;;;;;8.48;6.80;;;;;;;41.17;18.70;99291.87;4376917;32;33961;-83
2022/08/19 11:18:38;;;;;;;10.55;7.20;;;;;;;40.55;18.95;99287.50;4377415;32;33683;-82
2022/08/19 11:21:12;;;;;;;10.20;6.93;;;;;;;41.26;18.30;99282.94;4378276;32;33875;-82
2022/08/19 11:23:40;;;;;;;12.02;7.55;;;;;;;40.92;18.59;99289.69;4377599;32;33806;-81
2022/08/19 11:26:08;;;;;;;12.73;7.78;;;;;;;41.27;18.02;99289.22;4377843;32;34161;-81
2022/08/19 11:28:36;;;;;;;16.50;11.55;;;;;;;41.41;18.13;99282.50;4378391;32;33446;-84
2022/08/19 11:31:03;;;;;;;18.35;14.02;;;;;;;40.76;18.48;99291.06;4377524;32;33669;-85
2022/08/19 11:33:32;;;;;;;23.02;14.52;;;;;;;39.94;19.03;99297.25;4378703;32;34298;-83
2022/08/19 11:36:00;;;;;;;17.27;15.02;;;;;;;39.83;19.25;99290.03;4377634;32;34058;-79
2022/08/19 11:38:29;;;;;;;16.08;14.32;;;;;;;40.42;18.93;99293.16;4365078;32;34497;-82
2022/08/19 11:41:02;;;;;;;15.35;13.13;;;;;;;40.97;18.46;99287.41;4378240;32;33628;-83
2022/08/19 11:43:31;;;;;;;13.52;11.18;;;;;;;40.94;18.78;99290.41;4377558;32;33212;-82
2022/08/19 11:46:06;;;;;;;;;;;;;;;40.83;19.03;99289.50;4378059;32;33708;-91
2022/08/19 11:48:34;;;;;;;14.48;11.27;;;;;;;39.88;19.64;99274.22;4378372;32;33229;-85
2022/08/19 11:51:08;;;;;;;12.13;10.75;;;;;;;39.50;19.95;99274.75;4377476;32;33843;-84
2022/08/19 11:53:36;;;;;;;19.67;12.32;;;;;;;39.66;19.92;99268.91;4378620;32;33877;-83
2022/08/19 11:56:07;;;;;;;15.20;12.80;;;;;;;40.04;19.59;99273.75;4377708;32;33831;-82
2022/08/19 11:58:36;;;;;;;16.83;14.00;;;;;;;40.43;19.27;99268.59;4377500;32;33910;-81
2022/08/19 12:01:08;;;;;;;17.55;14.45;;;;;;;40.23;19.45;99277.59;4377251;32;34000;-85
2022/08/19 12:03:37;;;;;;;16.35;14.23;;;;;;;40.62;19.10;99275.94;4373309;32;33913;-83
2022/08/19 12:06:10;;;;;;;16.20;14.02;;;;;;;39.24;20.51;99275.06;4367850;32;34680;-82